Time;durP1;ratioP1;P1;durP2;ratioP2;P2;SDS_P1;SDS_P2;PMS_P1;PMS_P2;Temp;Humidity;BMP_temperature;BMP_pressure;BME280_temperature;BME280_humidity;BME280_pressure;Samples;Min_cycle;Max_cycle;Signal;HPM_P1;HPM_P2
2022/10/22 00:01:29;;;;;;;18.05;15.55;;;;;;;21.66;59.72;101162.69;5136067;27;20047;-82
2022/10/22 00:03:56;;;;;;;18.67;14.80;;;;;;;21.66;59.72;101151.91;5136380;27;20050;-82
2022/10/22 00:06:24;;;;;;;17.17;15.40;;;;;;;21.65;59.76;101156.47;5135374;27;20051;-82
2022/10/22 00:08:51;;;;;;;16.65;13.93;;;;;;;21.64;59.66;101143.13;5136271;27;20047;-83
2022/10/22 00:11:19;;;;;;;17.05;15.23;;;;;;;21.64;59.67;101135.91;5136155;27;20047;-83
2022/10/22 00:13:47;;;;;;;17.05;14.32;;;;;;;21.64;59.69;101108.97;5136167;27;20054;-83
2022/10/22 00:16:15;;;;;;;16.02;14.27;;;;;;;21.64;59.64;101086.56;5135224;27;20047;-83
2022/10/22 00:18:42;;;;;;;15.75;14.10;;;;;;;21.64;59.66;101073.94;5135550;27;20047;-82
2022/10/22 00:21:10;;;;;;;16.55;14.05;;;;;;;21.65;59.62;101078.31;5135866;27;20379;-82
2022/10/22 00:23:41;;;;;;;16.23;14.02;;;;;;;21.64;59.59;101092.78;5116583;28;20047;-82
2022/10/22 00:26:09;;;;;;;16.13;14.30;;;;;;;21.63;59.63;101136.91;5099631;28;20047;-82
2022/10/22 00:28:37;;;;;;;17.30;13.95;;;;;;;21.63;59.63;101136.91;5135998;28;20043;-83
2022/10/22 00:31:05;;;;;;;14.75;13.25;;;;;;;21.64;59.64;101119.75;5135070;28;20043;-82
2022/10/22 00:33:32;;;;;;;15.82;13.95;;;;;;;21.62;59.65;101113.63;5135719;28;20043;-83
2022/10/22 00:36:00;;;;;;;17.30;14.30;;;;;;;21.64;59.57;101108.13;5116505;28;20054;-82
2022/10/22 00:38:27;;;;;;;17.95;14.00;;;;;;;21.64;59.67;101113.50;5135563;28;20047;-83
2022/10/22 00:40:54;;;;;;;15.07;13.50;;;;;;;21.64;59.58;101106.25;5117484;28;20043;-83
2022/10/22 00:43:22;;;;;;;14.95;13.35;;;;;;;21.63;59.55;101098.31;5135261;28;20043;-82
2022/10/22 00:45:49;;;;;;;15.35;13.65;;;;;;;21.62;59.59;101099.31;5136282;27;20039;-83
2022/10/22 00:48:34;;;;;;;16.55;14.23;;;;;;;21.63;59.60;101085.72;5140074;27;20047;-83
2022/10/22 00:51:05;;;;;;;15.23;12.90;;;;;;;21.63;59.48;101088.41;5139939;27;20061;-83
2022/10/22 00:53:44;;;;;;;16.02;13.45;;;;;;;21.64;59.57;101100.03;5140083;27;20387;-83
2022/10/22 00:56:11;;;;;;;15.43;12.88;;;;;;;21.63;59.60;101099.19;5139775;27;20435;-83
2022/10/22 00:58:44;;;;;;;14.65;13.15;;;;;;;21.64;59.57;101095.50;5139208;27;20046;-82
2022/10/22 01:01:20;;;;;;;15.40;13.50;;;;;;;21.63;59.47;101096.50;5139933;27;20051;-82
2022/10/22 01:03:48;;;;;;;14.60;12.50;;;;;;;21.62;59.67;101081.28;5139595;27;20493;-83
2022/10/22 01:06:31;;;;;;;14.50;12.20;;;;;;;21.62;59.50;101089.38;5119943;27;20051;-83
2022/10/22 01:09:02;;;;;;;;;;;;;;;21.63;59.58;101088.41;5139743;27;20047;-82
2022/10/22 01:11:51;;;;;;;14.90;12.73;;;;;;;21.64;59.43;101087.41;5139606;27;19919;-82
2022/10/22 01:14:27;;;;;;;13.25;11.85;;;;;;;21.64;59.51;101086.56;5139075;27;20520;-83
2022/10/22 01:17:07;;;;;;;13.85;12.32;;;;;;;21.63;59.55;101080.31;5121065;27;20047;-82
2022/10/22 01:20:12;;;;;;;13.77;12.27;;;;;;;21.63;59.55;101069.53;5120699;27;20070;-82
2022/10/22 01:22:44;;;;;;;13.95;12.45;;;;;;;21.63;59.59;101045.28;5121026;27;20042;-82
2022/10/22 01:25:34;;;;;;;13.48;11.60;;;;;;;21.61;59.42;101049.13;5139013;27;20051;-83
2022/10/22 01:28:28;;;;;;;14.32;12.88;;;;;;;21.62;59.48;101057.03;5139153;27;20058;-82
2022/10/22 01:30:58;;;;;;;13.98;11.38;;;;;;;21.62;59.49;101023.88;5139223;27;20043;-82
2022/10/22 01:33:26;;;;;;;14.50;12.80;;;;;;;21.62;59.47;101007.69;5138439;27;20043;-83
2022/10/22 01:35:55;;;;;;;13.85;12.00;;;;;;;21.62;59.50;101007.69;5138538;27;20046;-82
2022/10/22 01:38:23;;;;;;;14.13;11.95;;;;;;;21.62;59.44;101002.31;5138453;27;20047;-83
2022/10/22 01:40:51;;;;;;;13.30;11.43;;;;;;;21.62;59.57;100991.53;5138119;27;20046;-82
2022/10/22 01:43:19;;;;;;;12.25;10.95;;;;;;;21.62;59.50;101008.53;5138392;27;20054;-82
2022/10/22 01:45:50;;;;;;;15.27;12.23;;;;;;;21.63;59.47;101012.09;5138479;27;20035;-83
2022/10/22 01:48:39;;;;;;;12.77;11.48;;;;;;;21.61;59.46;101009.53;5138885;27;20054;-83
2022/10/22 01:51:37;;;;;;;13.23;11.82;;;;;;;21.61;59.57;101023.03;5137869;27;20042;-83
2022/10/22 01:54:11;;;;;;;12.85;11.52;;;;;;;21.61;59.19;101012.25;5138553;27;20047;-82
2022/10/22 01:56:56;;;;;;;12.70;11.32;;;;;;;21.62;59.37;101015.78;5119472;27;20062;-82
2022/10/22 02:00:02;;;;;;;13.20;11.25;;;;;;;21.61;59.46;101016.78;5138729;27;20489;-83
2022/10/22 02:02:59;;;;;;;12.73;11.43;;;;;;;21.60;59.53;100994.38;5138397;27;20414;-83
2022/10/22 02:05:48;;;;;;;12.38;11.07;;;;;;;21.61;59.51;100979.91;5138992;27;20046;-83
2022/10/22 02:08:29;;;;;;;12.27;10.93;;;;;;;21.62;59.55;100995.06;5119338;27;20055;-83
2022/10/22 02:10:58;;;;;;;13.68;11.32;;;;;;;21.62;59.55;100967.28;5138223;27;20047;-82
2022/10/22 02:13:46;;;;;;;14.68;11.82;;;;;;;21.62;59.36;100986.16;5137674;27;20043;-82
2022/10/22 02:16:43;;;;;;;11.60;10.45;;;;;;;21.61;59.38;100993.38;5138603;27;20050;-82
2022/10/22 02:19:29;;;;;;;12.50;11.20;;;;;;;21.61;59.42;100989.84;5138299;27;20043;-82
2022/10/22 02:21:57;;;;;;;13.65;11.30;;;;;;;21.60;59.40;100948.59;5101858;27;20074;-83
2022/10/22 02:24:24;;;;;;;12.20;10.90;;;;;;;21.61;59.45;100957.50;5137471;27;20047;-82
2022/10/22 02:27:31;;;;;;;12.32;9.85;;;;;;;21.60;59.51;100964.75;5137500;27;20047;-83
2022/10/22 02:30:04;;;;;;;12.07;10.75;;;;;;;21.60;59.14;100967.44;5034738;28;20061;-82
2022/10/22 02:32:41;;;;;;;11.50;10.35;;;;;;;21.61;59.39;100962.91;5034559;28;20068;-83
2022/10/22 02:35:13;;;;;;;11.27;10.18;;;;;;;21.61;59.50;100984.44;5034375;28;20062;-82
2022/10/22 02:37:42;;;;;;;11.50;9.88;;;;;;;21.59;59.48;101002.59;5034372;28;20049;-83
2022/10/22 02:40:10;;;;;;;12.90;10.63;;;;;;;21.61;59.50;100997.94;5033917;28;20065;-82
2022/10/22 02:42:39;;;;;;;12.18;9.95;;;;;;;21.61;59.52;101003.31;5016972;28;20432;-82
2022/10/22 02:45:07;;;;;;;11.65;9.93;;;;;;;21.61;59.38;101006.00;5017389;28;20060;-82
2022/10/22 02:47:35;;;;;;;11.27;10.07;;;;;;;21.61;59.39;100996.06;5035400;28;20493;-83
2022/10/22 02:50:02;;;;;;;12.45;10.43;;;;;;;21.59;59.41;100998.06;5035156;28;20057;-83
2022/10/22 02:52:35;;;;;;;12.80;10.43;;;;;;;21.60;59.50;100999.78;5018901;28;20158;-83
2022/10/22 02:55:04;;;;;;;13.43;11.02;;;;;;;21.61;59.50;100976.38;5016434;28;20061;-82
2022/10/22 02:57:32;;;;;;;11.05;9.88;;;;;;;21.61;59.44;100996.06;5034162;28;20041;-83
2022/10/22 02:59:59;;;;;;;12.20;10.90;;;;;;;21.61;59.41;100995.22;5034030;28;20108;-83
2022/10/22 03:02:26;;;;;;;11.20;9.98;;;;;;;21.60;59.39;100989.00;5034358;28;20501;-83
2022/10/22 03:04:54;;;;;;;12.70;10.38;;;;;;;21.61;59.37;100974.53;5056755;27;20063;-83
2022/10/22 03:07:21;;;;;;;11.32;9.43;;;;;;;21.60;59.47;100945.88;5118445;27;20051;-83
2022/10/22 03:09:48;;;;;;;10.45;9.35;;;;;;;21.60;59.46;100953.97;5135501;27;20043;-83
2022/10/22 03:12:16;;;;;;;11.95;10.38;;;;;;;21.60;59.42;100985.47;5136524;27;20047;-83
2022/10/22 03:14:43;;;;;;;11.85;10.02;;;;;;;21.60;59.32;100990.84;5136654;27;20117;-83
2022/10/22 03:17:10;;;;;;;11.80;10.05;;;;;;;21.60;59.39;100969.28;5136597;27;20043;-83
2022/10/22 03:19:38;;;;;;;11.25;10.05;;;;;;;21.59;59.38;100963.06;5136803;27;20043;-82
2022/10/22 03:22:11;;;;;;;10.70;9.60;;;;;;;21.60;59.22;100937.81;5136905;27;20039;-82
2022/10/22 03:24:43;;;;;;;11.85;10.50;;;;;;;21.58;59.39;100945.16;5136586;27;20043;-83
2022/10/22 03:27:13;;;;;;;11.85;9.77;;;;;;;21.60;59.37;100947.75;5137023;27;20043;-82
2022/10/22 03:29:42;;;;;;;10.50;8.98;;;;;;;21.59;59.38;100949.59;5136807;27;20047;-82
2022/10/22 03:32:09;;;;;;;9.85;8.77;;;;;;;21.59;59.37;100960.38;5118180;27;20039;-82
2022/10/22 03:34:36;;;;;;;10.82;9.35;;;;;;;21.59;59.37;100946.00;5136434;27;20047;-83
2022/10/22 03:37:04;;;;;;;10.13;9.13;;;;;;;21.59;59.44;100924.47;5136253;27;20039;-83
2022/10/22 03:39:34;;;;;;;9.38;8.45;;;;;;;21.59;59.44;100930.72;5117059;27;20058;-83
2022/10/22 03:42:02;;;;;;;10.60;9.32;;;;;;;21.58;59.35;100950.56;5136634;27;20038;-82
2022/10/22 03:44:31;;;;;;;9.95;8.95;;;;;;;21.59;59.38;100959.47;5135805;27;20054;-82
2022/10/22 03:46:58;;;;;;;10.68;9.35;;;;;;;21.60;59.34;100955.81;5136081;27;20394;-82
2022/10/22 03:49:29;;;;;;;9.70;8.70;;;;;;;21.59;59.43;100964.88;5136579;27;20050;-82
2022/10/22 03:51:56;;;;;;;9.57;8.50;;;;;;;21.58;59.42;100955.94;5135996;27;20046;-83
2022/10/22 03:54:23;;;;;;;9.70;8.73;;;;;;;21.60;59.41;100966.59;5135731;27;20103;-82
2022/10/22 03:56:51;;;;;;;10.13;9.07;;;;;;;21.58;59.41;100961.34;5116920;27;20051;-83
2022/10/22 03:59:18;;;;;;;10.57;9.50;;;;;;;21.58;59.37;100958.63;5135617;27;20053;-82
2022/10/22 04:01:45;;;;;;;10.23;8.48;;;;;;;21.58;59.42;100945.16;5135408;27;20043;-82
2022/10/22 04:04:12;;;;;;;10.32;7.55;;;;;;;21.58;59.38;100947.88;5136668;27;20039;-83
2022/10/22 04:06:40;;;;;;;9.07;8.20;;;;;;;21.58;59.38;100958.63;5135510;27;20043;-82
2022/10/22 04:09:07;;;;;;;8.90;8.00;;;;;;;21.59;59.50;100960.38;5135693;27;20043;-82
2022/10/22 04:11:34;;;;;;;12.30;8.68;;;;;;;21.57;59.42;100959.63;5135658;27;20046;-83
2022/10/22 04:14:02;;;;;;;9.60;8.60;;;;;;;21.58;59.50;100957.78;5135647;27;20050;-82
2022/10/22 04:16:31;;;;;;;10.50;8.27;;;;;;;21.59;59.38;100954.09;5135600;27;20039;-82
2022/10/22 04:18:58;;;;;;;9.10;8.02;;;;;;;21.57;59.41;100940.78;5135469;27;20482;-83
2022/10/22 04:21:26;;;;;;;9.07;8.18;;;;;;;21.58;59.41;100941.63;5135042;27;20501;-83
2022/10/22 04:23:53;;;;;;;10.50;8.23;;;;;;;21.58;59.41;100942.47;5135242;27;20372;-82
2022/10/22 04:26:20;;;;;;;8.88;7.97;;;;;;;21.58;59.42;100938.94;5136120;27;20047;-82
2022/10/22 04:28:50;;;;;;;9.88;7.72;;;;;;;21.59;59.40;100929.84;5135323;28;20046;-83
2022/10/22 04:31:19;;;;;;;9.52;8.13;;;;;;;21.58;59.45;100934.41;5135516;28;20054;-83
2022/10/22 04:33:51;;;;;;;8.55;7.72;;;;;;;21.58;59.49;100934.41;5135393;28;20035;-82
2022/10/22 04:36:19;;;;;;;10.05;7.93;;;;;;;21.58;59.45;100925.47;5135618;28;20391;-83
2022/10/22 04:38:51;;;;;;;10.00;8.40;;;;;;;21.57;59.46;100932.69;5135148;28;20042;-83
2022/10/22 04:41:22;;;;;;;10.25;8.45;;;;;;;21.57;59.37;100939.94;5116727;28;20058;-83
2022/10/22 04:43:49;;;;;;;8.63;7.57;;;;;;;21.58;59.42;100931.69;5135740;28;20047;-83
2022/10/22 04:46:17;;;;;;;8.73;7.25;;;;;;;21.58;59.50;100936.25;5135266;28;20517;-83
2022/10/22 04:48:45;;;;;;;8.73;7.82;;;;;;;21.57;59.46;100935.41;5135694;28;20051;-83
2022/10/22 04:51:16;;;;;;;8.50;7.68;;;;;;;21.58;59.44;100949.72;5116130;28;20051;-82
2022/10/22 04:53:44;;;;;;;8.55;7.45;;;;;;;21.59;59.35;100943.31;5136394;28;20414;-82
2022/10/22 04:56:15;;;;;;;8.57;7.68;;;;;;;21.58;59.45;100936.25;5135455;28;20046;-83
2022/10/22 04:58:43;;;;;;;7.85;6.95;;;;;;;21.58;59.50;100944.31;5136060;28;20062;-82
2022/10/22 05:01:20;;;;;;;9.63;7.88;;;;;;;21.57;59.37;100931.84;5135054;28;20054;-83
2022/10/22 05:03:50;;;;;;;7.95;7.13;;;;;;;21.57;59.47;100938.09;5136011;28;20506;-82
2022/10/22 05:06:19;;;;;;;8.82;7.10;;;;;;;21.58;59.43;100941.63;5135011;28;20054;-82
2022/10/22 05:08:50;;;;;;;8.30;7.50;;;;;;;21.57;59.41;100930.00;5135882;28;20039;-82
2022/10/22 05:11:20;;;;;;;8.00;7.10;;;;;;;21.58;59.30;100937.09;5135803;28;20039;-82
2022/10/22 05:13:48;;;;;;;7.85;7.05;;;;;;;21.57;59.38;100921.91;5135580;28;20046;-82
2022/10/22 05:16:15;;;;;;;8.25;7.35;;;;;;;21.57;59.48;100913.84;5135033;28;20043;-82
2022/10/22 05:18:44;;;;;;;11.48;7.80;;;;;;;21.57;59.40;100921.91;5135615;28;20054;-82
2022/10/22 05:21:21;;;;;;;8.13;7.25;;;;;;;21.57;59.47;100916.53;5134624;28;20035;-82
2022/10/22 05:23:49;;;;;;;7.28;6.57;;;;;;;21.57;59.47;100919.22;5117678;28;20046;-82
2022/10/22 05:26:19;;;;;;;8.23;7.15;;;;;;;21.57;59.44;100908.44;5135042;28;20051;-83
2022/10/22 05:28:48;;;;;;;7.85;7.05;;;;;;;21.56;59.42;100912.16;5135140;28;20061;-82
2022/10/22 05:31:16;;;;;;;8.32;7.38;;;;;;;21.56;59.44;100912.16;5116188;28;20513;-82
2022/10/22 05:33:45;;;;;;;7.25;6.20;;;;;;;21.57;59.40;100900.38;5137787;27;20152;-82
2022/10/22 05:36:15;;;;;;;9.00;6.80;;;;;;;21.56;59.44;100901.38;5138703;27;20144;-82
2022/10/22 05:38:43;;;;;;;8.23;6.65;;;;;;;21.56;59.36;100901.38;5139278;27;20051;-82
2022/10/22 05:41:14;;;;;;;8.35;6.97;;;;;;;21.57;59.44;100908.44;5138022;27;20047;-82
2022/10/22 05:43:42;;;;;;;7.05;6.35;;;;;;;21.57;59.31;100902.22;5120604;27;20050;-82
2022/10/22 05:46:15;;;;;;;7.93;6.70;;;;;;;21.56;59.36;100905.91;5138466;27;20368;-82
2022/10/22 05:49:06;;;;;;;8.20;6.68;;;;;;;21.57;59.43;100899.53;5137982;27;20051;-81
2022/10/22 05:51:35;;;;;;;6.75;6.05;;;;;;;21.56;59.44;100890.59;5138825;27;20058;-82
2022/10/22 05:54:05;;;;;;;7.78;6.70;;;;;;;21.56;59.42;100893.28;5119116;27;20047;-82
2022/10/22 05:56:33;;;;;;;6.93;5.88;;;;;;;21.57;59.40;100902.22;5138548;27;20043;-82
2022/10/22 05:59:01;;;;;;;7.80;6.68;;;;;;;21.56;59.43;100893.28;5119718;27;20113;-82
2022/10/22 06:01:31;;;;;;;8.15;6.78;;;;;;;21.56;59.38;100896.00;5138408;27;20039;-82
2022/10/22 06:04:01;;;;;;;8.15;6.30;;;;;;;21.57;59.43;100899.53;5138896;27;20050;-81
2022/10/22 06:06:33;;;;;;;7.97;6.22;;;;;;;21.57;59.42;100913.00;5138153;27;20051;-82
2022/10/22 06:09:13;;;;;;;7.72;6.75;;;;;;;21.57;59.44;100919.22;5138945;27;20050;-82
2022/10/22 06:11:40;;;;;;;7.38;6.68;;;;;;;21.56;59.23;100905.91;5138391;27;20493;-82
2022/10/22 06:14:08;;;;;;;7.65;6.93;;;;;;;21.57;59.46;100908.44;5138530;27;20470;-82
2022/10/22 06:16:36;;;;;;;8.30;6.90;;;;;;;21.56;59.38;100909.47;5137978;27;20062;-82
2022/10/22 06:19:04;;;;;;;7.90;5.78;;;;;;;21.56;59.52;100908.63;5138279;27;20046;-82
2022/10/22 06:21:31;;;;;;;7.88;5.88;;;;;;;21.57;59.42;100913.84;5138043;27;20057;-82
2022/10/22 06:24:00;;;;;;;6.72;6.03;;;;;;;21.56;59.30;100904.06;5138087;27;20401;-81
2022/10/22 06:26:28;;;;;;;6.03;5.43;;;;;;;21.56;59.55;100905.91;5138470;27;20404;-82
2022/10/22 06:28:56;;;;;;;7.13;6.43;;;;;;;21.56;59.43;100914.84;5138392;27;20047;-82
2022/10/22 06:31:26;;;;;;;6.38;5.72;;;;;;;21.55;59.47;100913.13;5138529;27;20047;-82
2022/10/22 06:33:55;;;;;;;6.65;5.63;;;;;;;21.57;59.40;100921.06;5137896;27;20039;-82
2022/10/22 06:36:23;;;;;;;7.25;5.82;;;;;;;21.55;59.42;100910.44;5138604;27;20043;-82
2022/10/22 06:38:52;;;;;;;7.25;6.40;;;;;;;21.55;59.44;100915.81;5138643;27;20066;-82
2022/10/22 06:41:20;;;;;;;7.60;6.18;;;;;;;21.56;59.44;100925.63;5137420;27;20066;-82
2022/10/22 06:43:53;;;;;;;6.95;6.20;;;;;;;21.56;59.36;100932.84;5138364;27;20040;-82
2022/10/22 06:46:21;;;;;;;6.88;6.13;;;;;;;21.57;59.47;100942.63;5138135;27;20050;-82
2022/10/22 06:48:50;;;;;;;7.85;6.50;;;;;;;21.55;59.47;100953.53;5137295;27;20051;-82
2022/10/22 06:51:19;;;;;;;6.72;6.03;;;;;;;21.56;59.41;100944.47;5137827;27;20043;-82
2022/10/22 06:53:48;;;;;;;7.15;6.45;;;;;;;21.57;59.42;100935.41;5137285;27;20035;-82
2022/10/22 06:56:18;;;;;;;7.35;6.50;;;;;;;21.57;59.43;100948.03;5137814;27;20054;-81
2022/10/22 06:58:47;;;;;;;6.95;5.82;;;;;;;21.56;59.41;100960.63;5137878;27;20058;-82
2022/10/22 07:01:17;;;;;;;9.20;6.10;;;;;;;21.56;59.41;100949.03;5137851;27;20047;-82
2022/10/22 07:03:45;;;;;;;6.70;6.00;;;;;;;21.55;59.44;100953.53;5136326;27;20043;-82
2022/10/22 07:06:14;;;;;;;7.15;6.45;;;;;;;21.56;59.48;100959.78;5136161;27;20051;-82
2022/10/22 07:08:42;;;;;;;6.63;5.97;;;;;;;21.55;59.44;100958.91;5137015;27;20043;-82
2022/10/22 07:11:22;;;;;;;6.90;5.70;;;;;;;21.55;59.38;100964.31;5118199;27;20050;-82
2022/10/22 07:13:52;;;;;;;7.05;6.03;;;;;;;21.56;59.45;100965.19;5120165;27;20043;-82
2022/10/22 07:16:20;;;;;;;6.22;5.57;;;;;;;21.57;59.54;100977.66;5136582;27;20394;-83
2022/10/22 07:18:47;;;;;;;7.50;6.05;;;;;;;21.55;59.45;100974.22;5117283;27;20406;-82
2022/10/22 07:21:16;;;;;;;6.47;5.85;;;;;;;21.55;59.48;100983.16;5136782;27;20490;-82
2022/10/22 07:23:44;;;;;;;7.00;6.30;;;;;;;21.55;59.25;100977.78;5136572;27;20046;-82
2022/10/22 07:26:14;;;;;;;6.72;6.05;;;;;;;21.55;59.45;100988.53;5135643;27;20071;-82
2022/10/22 07:28:41;;;;;;;7.18;5.82;;;;;;;21.56;59.46;100990.28;5137067;27;20058;-82
2022/10/22 07:31:10;;;;;;;6.20;5.60;;;;;;;21.56;59.42;100992.97;5135723;27;20043;-81
2022/10/22 07:33:38;;;;;;;6.35;5.75;;;;;;;21.55;59.46;100999.31;5135652;27;20039;-82
2022/10/22 07:36:09;;;;;;;6.78;5.72;;;;;;;21.54;59.45;100989.56;5117544;27;20051;-82
2022/10/22 07:38:37;;;;;;;8.07;5.50;;;;;;;21.55;59.44;100999.31;5137401;27;20382;-81
2022/10/22 07:41:04;;;;;;;6.93;5.80;;;;;;;21.57;59.36;100999.19;5135884;27;20398;-82
2022/10/22 07:43:31;;;;;;;6.53;5.90;;;;;;;21.55;59.51;101002.03;5135929;27;20050;-82
2022/10/22 07:45:59;;;;;;;8.35;6.32;;;;;;;21.55;59.47;101003.88;5116286;27;20406;-82
2022/10/22 07:48:26;;;;;;;7.40;5.90;;;;;;;21.55;59.46;101012.78;5136512;27;20050;-81
2022/10/22 07:50:54;;;;;;;6.88;5.63;;;;;;;21.56;59.50;101019.91;5135356;27;20043;-82
2022/10/22 07:53:21;;;;;;;7.47;5.82;;;;;;;21.54;59.48;101008.41;5136143;27;20035;-82
2022/10/22 07:55:52;;;;;;;6.88;6.18;;;;;;;21.55;59.48;101011.94;5134470;27;20054;-82
2022/10/22 07:58:20;;;;;;;7.20;5.60;;;;;;;21.56;59.45;101009.13;5134960;27;20038;-82
2022/10/22 08:00:49;;;;;;;6.78;6.13;;;;;;;21.56;59.45;101019.91;5134719;27;20051;-82
2022/10/22 08:03:17;;;;;;;6.13;5.45;;;;;;;21.55;59.46;101015.50;5116292;27;20051;-82
2022/10/22 08:05:44;;;;;;;5.97;5.47;;;;;;;21.56;59.49;101024.44;5136392;27;20058;-82
2022/10/22 08:08:14;;;;;;;6.78;5.30;;;;;;;21.56;59.44;101019.06;5136675;27;20371;-82
2022/10/22 08:10:42;;;;;;;5.97;5.43;;;;;;;21.55;59.49;101030.81;5135707;27;20046;-82
2022/10/22 08:13:10;;;;;;;7.03;5.65;;;;;;;21.55;59.49;101026.25;5136429;27;20097;-81
2022/10/22 08:15:38;;;;;;;6.50;5.90;;;;;;;21.56;59.63;101016.38;5135215;27;20047;-82
2022/10/22 08:18:05;;;;;;;5.82;5.25;;;;;;;21.55;59.45;101020.88;5135626;27;20039;-82
2022/10/22 08:20:32;;;;;;;7.55;5.55;;;;;;;21.55;59.49;101017.34;5135955;27;20399;-81
2022/10/22 08:23:00;;;;;;;5.68;5.10;;;;;;;21.55;59.45;101018.19;5135239;27;20064;-81
2022/10/22 08:25:27;;;;;;;7.57;6.05;;;;;;;21.55;59.44;101018.19;5134231;27;20050;-82
2022/10/22 08:27:54;;;;;;;6.32;5.70;;;;;;;21.54;59.56;101019.19;5134303;27;20043;-82
2022/10/22 08:30:22;;;;;;;6.40;5.80;;;;;;;21.55;59.51;101033.50;5134338;28;20047;-80
2022/10/22 08:32:49;;;;;;;6.20;5.53;;;;;;;21.55;59.50;101031.66;5136725;28;20043;-82
2022/10/22 08:35:20;;;;;;;6.93;5.15;;;;;;;21.55;59.49;101033.50;5137365;28;20047;-82
2022/10/22 08:37:48;;;;;;;7.10;5.60;;;;;;;21.56;59.51;101025.28;5117119;28;20391;-81
2022/10/22 08:40:32;;;;;;;6.07;5.13;;;;;;;21.55;59.49;101028.09;5136371;28;20047;-82
2022/10/22 08:43:11;;;;;;;5.97;4.65;;;;;;;21.55;59.50;101030.81;5136306;28;20047;-81
2022/10/22 08:45:50;;;;;;;5.43;4.85;;;;;;;21.56;59.46;101036.06;5136373;28;20050;-81
2022/10/22 08:48:17;;;;;;;6.75;5.32;;;;;;;21.54;59.40;101032.66;5118413;28;20050;-82
2022/10/22 08:50:47;;;;;;;7.30;5.82;;;;;;;21.55;59.59;101041.56;5136149;28;20406;-82
2022/10/22 08:53:17;;;;;;;7.05;5.40;;;;;;;21.54;59.49;101035.34;5117170;28;20055;-82
2022/10/22 08:55:46;;;;;;;5.85;5.28;;;;;;;21.54;59.50;101048.81;5137261;28;20054;-82
2022/10/22 08:58:16;;;;;;;5.75;5.25;;;;;;;21.55;59.50;101047.81;5135679;28;20039;-82
2022/10/22 09:00:51;;;;;;;5.70;5.03;;;;;;;21.54;59.45;101040.72;5117071;28;20407;-82
2022/10/22 09:03:30;;;;;;;5.00;4.50;;;;;;;21.55;59.47;101045.13;5100551;28;20047;-81
2022/10/22 09:06:06;;;;;;;5.90;5.30;;;;;;;21.54;59.60;101061.44;5135992;28;20058;-82
2022/10/22 09:08:35;;;;;;;6.07;5.38;;;;;;;21.54;59.54;101050.66;5137769;27;20055;-81
2022/10/22 09:11:17;;;;;;;5.57;5.03;;;;;;;21.56;59.58;101059.47;5141973;27;20394;-81
2022/10/22 09:13:45;;;;;;;6.00;5.40;;;;;;;21.54;59.58;101056.91;5140473;27;20054;-82
2022/10/22 09:16:36;;;;;;;6.82;5.18;;;;;;;21.56;59.42;101067.56;5140775;27;20051;-81
2022/10/22 09:19:16;;;;;;;6.63;4.97;;;;;;;21.55;59.53;101060.44;5141133;27;20046;-82
2022/10/22 09:21:55;;;;;;;6.03;5.20;;;;;;;21.56;59.63;101067.56;5122609;27;20047;-81
2022/10/22 09:24:44;;;;;;;6.65;5.30;;;;;;;21.55;59.59;101063.97;5122169;27;20501;-81
2022/10/22 09:27:15;;;;;;;5.22;4.63;;;;;;;21.56;59.56;101068.41;5139623;27;20055;-82
2022/10/22 09:29:43;;;;;;;5.10;4.57;;;;;;;21.54;59.69;101066.81;5120692;27;20055;-82
2022/10/22 09:32:11;;;;;;;5.13;4.63;;;;;;;21.54;59.65;101070.38;5139818;27;20046;-81
2022/10/22 09:34:39;;;;;;;5.18;4.53;;;;;;;21.56;59.59;101078.31;5140251;27;20056;-82
2022/10/22 09:37:08;;;;;;;5.53;4.90;;;;;;;21.52;59.52;101066.97;5140710;27;20043;-81
2022/10/22 09:39:49;;;;;;;5.32;4.70;;;;;;;21.55;59.59;101080.16;5140725;27;20047;-82
2022/10/22 09:42:19;;;;;;;5.78;5.18;;;;;;;21.55;59.65;101071.22;5139921;27;20050;-82
2022/10/22 09:44:54;;;;;;;6.82;4.75;;;;;;;21.55;59.66;101074.75;5121339;27;20051;-82
2022/10/22 09:47:38;;;;;;;4.93;4.28;;;;;;;21.52;59.62;101064.28;5141232;27;20051;-82
2022/10/22 09:50:47;;;;;;;5.38;4.88;;;;;;;21.55;59.67;101084.69;5139362;27;20039;-82
2022/10/22 09:53:29;;;;;;;5.75;4.90;;;;;;;21.55;59.60;101085.53;5139179;27;20390;-81
2022/10/22 09:56:05;;;;;;;6.45;5.20;;;;;;;21.56;59.63;101094.50;5139043;27;20039;-82
2022/10/22 09:58:44;;;;;;;5.88;4.80;;;;;;;21.55;59.54;101108.94;5138574;27;20047;-82
2022/10/22 10:01:37;;;;;;;6.68;5.20;;;;;;;21.55;59.53;101098.16;5119349;27;20482;-82
2022/10/22 10:04:07;;;;;;;6.15;4.82;;;;;;;21.55;59.59;101101.69;5137403;27;20059;-82
2022/10/22 10:06:39;;;;;;;5.38;4.78;;;;;;;21.56;59.59;101110.66;5138443;27;20066;-81
2022/10/22 10:09:21;;;;;;;4.85;4.35;;;;;;;21.55;59.61;101104.38;5138111;27;20073;-81
2022/10/22 10:11:59;;;;;;;5.67;5.07;;;;;;;21.55;59.57;101111.63;5138053;27;20043;-81
2022/10/22 10:14:29;;;;;;;4.70;4.20;;;;;;;21.56;59.64;101116.88;5138534;27;20395;-82
2022/10/22 10:17:23;;;;;;;5.43;4.93;;;;;;;21.55;59.61;101108.94;5137804;27;20054;-82
2022/10/22 10:20:20;;;;;;;5.28;4.38;;;;;;;21.55;59.53;101108.94;5138226;27;20051;-82
2022/10/22 10:23:01;;;;;;;5.20;4.68;;;;;;;21.55;59.57;101115.16;5138136;27;20051;-81
2022/10/22 10:25:56;;;;;;;5.20;4.72;;;;;;;21.55;59.50;101120.56;5137686;27;20035;-81
2022/10/22 10:28:41;;;;;;;5.65;4.78;;;;;;;21.56;59.56;101114.19;5137810;27;20406;-82
2022/10/22 10:31:08;;;;;;;5.30;4.72;;;;;;;21.55;59.58;101114.31;5138771;27;20047;-82
2022/10/22 10:33:48;;;;;;;5.95;4.82;;;;;;;21.56;59.57;101122.28;5137494;27;20383;-81
2022/10/22 10:36:30;;;;;;;6.25;5.30;;;;;;;21.56;59.55;101105.28;5136792;27;20050;-82
2022/10/22 10:39:03;;;;;;;5.45;4.82;;;;;;;21.55;59.48;101108.94;5137347;27;20210;-81
2022/10/22 10:41:35;;;;;;;5.68;5.07;;;;;;;21.55;59.57;101119.72;5137341;27;20054;-81
2022/10/22 10:44:21;;;;;;;5.82;5.22;;;;;;;21.56;59.50;101126.81;5119664;27;20047;-81
2022/10/22 10:47:00;;;;;;;5.72;5.07;;;;;;;21.56;59.55;101129.50;5137535;27;20051;-81
2022/10/22 10:49:34;;;;;;;5.15;4.65;;;;;;;21.55;59.51;101119.72;5137572;27;20047;-82
2022/10/22 10:52:25;;;;;;;6.15;5.28;;;;;;;21.54;59.54;101124.25;5137060;27;20043;-82
2022/10/22 10:55:17;;;;;;;5.35;4.30;;;;;;;21.55;59.50;101128.63;5137419;27;20043;-82
2022/10/22 10:57:54;;;;;;;5.63;4.88;;;;;;;21.54;59.63;101126.94;5139548;27;20070;-81
2022/10/22 11:00:22;;;;;;;4.82;4.40;;;;;;;21.55;59.58;101125.09;5137460;27;20047;-81
2022/10/22 11:03:19;;;;;;;5.53;4.35;;;;;;;21.55;59.63;101125.09;5137674;27;20047;-81
2022/10/22 11:05:57;;;;;;;5.88;4.13;;;;;;;21.56;59.58;101124.13;5138476;27;20051;-82
2022/10/22 11:08:34;;;;;;;5.55;4.65;;;;;;;21.55;59.44;101127.78;5137113;27;20062;-81
2022/10/22 11:11:25;;;;;;;5.20;4.68;;;;;;;21.56;59.56;101130.34;5138933;27;20047;-81
2022/10/22 11:14:02;;;;;;;4.93;4.43;;;;;;;21.54;59.56;101129.63;5138263;27;20467;-81
2022/10/22 11:16:43;;;;;;;5.32;4.55;;;;;;;21.55;59.49;101123.25;5137738;27;20054;-81
2022/10/22 11:19:33;;;;;;;4.63;4.22;;;;;;;21.56;59.52;101110.66;5137249;27;20047;-81
2022/10/22 11:22:34;;;;;;;5.78;5.15;;;;;;;21.56;59.56;101124.13;5120421;27;20046;-82
2022/10/22 11:25:14;;;;;;;4.28;3.88;;;;;;;21.56;59.59;101124.13;5137190;27;20039;-81
2022/10/22 11:27:46;;;;;;;6.03;5.00;;;;;;;21.55;59.61;101117.84;5138078;27;20042;-81
2022/10/22 11:30:20;;;;;;;5.72;4.38;;;;;;;21.55;59.53;101122.41;5136276;27;20054;-81
2022/10/22 11:32:52;;;;;;;4.78;4.28;;;;;;;21.56;59.53;101121.44;5137458;27;20051;-81
2022/10/22 11:35:41;;;;;;;5.50;4.72;;;;;;;21.56;59.51;101108.81;5137913;27;20047;-81
2022/10/22 11:38:14;;;;;;;5.55;4.40;;;;;;;21.55;59.60;101104.38;5137133;27;20043;-82
2022/10/22 11:41:17;;;;;;;4.90;4.40;;;;;;;21.55;59.54;101098.16;5118817;27;20563;-81
2022/10/22 11:43:58;;;;;;;6.07;4.75;;;;;;;21.56;59.50;101116.88;5137518;27;20047;-82
2022/10/22 11:46:48;;;;;;;5.65;4.78;;;;;;;21.55;59.64;101106.22;5137390;27;20046;-81
2022/10/22 11:49:20;;;;;;;6.00;5.05;;;;;;;21.55;59.61;101101.69;5053862;28;20061;-81